sensor_id;sensor_type;location;lat;lon;timestamp;P1;durP1;ratioP1;P2;durP2;ratioP2
55114;SDS011;41010;53.252;5.786;2022-11-20T00:01:33;15.55;;;8.93;;
55114;SDS011;41010;53.252;5.786;2022-11-20T00:04:00;15.90;;;8.70;;
55114;SDS011;41010;53.252;5.786;2022-11-20T00:06:28;17.30;;;8.43;;
55114;SDS011;41010;53.252;5.786;2022-11-20T00:08:55;14.73;;;8.25;;
55114;SDS011;41010;53.252;5.786;2022-11-20T00:11:25;17.70;;;9.27;;
55114;SDS011;41010;53.252;5.786;2022-11-20T00:13:54;19.88;;;10.02;;
55114;SDS011;41010;53.252;5.786;2022-11-20T00:16:23;19.35;;;9.73;;
55114;SDS011;41010;53.252;5.786;2022-11-20T00:18:50;16.85;;;9.35;;
55114;SDS011;41010;53.252;5.786;2022-11-20T00:21:18;15.63;;;9.05;;
55114;SDS011;41010;53.252;5.786;2022-11-20T00:23:48;14.65;;;8.60;;
55114;SDS011;41010;53.252;5.786;2022-11-20T00:26:16;21.85;;;9.15;;
55114;SDS011;41010;53.252;5.786;2022-11-20T00:28:48;13.63;;;8.35;;
55114;SDS011;41010;53.252;5.786;2022-11-20T00:31:16;14.05;;;7.82;;
55114;SDS011;41010;53.252;5.786;2022-11-20T00:33:43;16.15;;;8.65;;
55114;SDS011;41010;53.252;5.786;2022-11-20T00:36:12;15.07;;;8.32;;
55114;SDS011;41010;53.252;5.786;2022-11-20T00:38:39;13.10;;;8.38;;
55114;SDS011;41010;53.252;5.786;2022-11-20T00:41:09;13.98;;;8.40;;
55114;SDS011;41010;53.252;5.786;2022-11-20T00:43:36;14.65;;;8.50;;
55114;SDS011;41010;53.252;5.786;2022-11-20T00:46:06;15.60;;;8.57;;
55114;SDS011;41010;53.252;5.786;2022-11-20T00:48:33;16.08;;;8.95;;
55114;SDS011;41010;53.252;5.786;2022-11-20T00:51:00;16.63;;;8.60;;
55114;SDS011;41010;53.252;5.786;2022-11-20T00:53:28;14.98;;;8.00;;
55114;SDS011;41010;53.252;5.786;2022-11-20T00:55:55;14.80;;;8.50;;
55114;SDS011;41010;53.252;5.786;2022-11-20T00:58:24;15.32;;;8.98;;
55114;SDS011;41010;53.252;5.786;2022-11-20T01:00:52;19.98;;;9.82;;
55114;SDS011;41010;53.252;5.786;2022-11-20T01:03:20;16.65;;;9.25;;
55114;SDS011;41010;53.252;5.786;2022-11-20T01:05:48;15.93;;;8.25;;
55114;SDS011;41010;53.252;5.786;2022-11-20T01:08:15;17.02;;;8.80;;
55114;SDS011;41010;53.252;5.786;2022-11-20T01:10:42;16.00;;;8.85;;
55114;SDS011;41010;53.252;5.786;2022-11-20T01:13:09;25.58;;;11.45;;
55114;SDS011;41010;53.252;5.786;2022-11-20T01:16:10;23.70;;;11.15;;
55114;SDS011;41010;53.252;5.786;2022-11-20T01:18:39;19.45;;;8.65;;
55114;SDS011;41010;53.252;5.786;2022-11-20T01:21:08;17.75;;;8.38;;
55114;SDS011;41010;53.252;5.786;2022-11-20T01:23:36;15.25;;;8.25;;
55114;SDS011;41010;53.252;5.786;2022-11-20T01:26:05;14.10;;;8.23;;
55114;SDS011;41010;53.252;5.786;2022-11-20T01:28:32;15.70;;;8.52;;
55114;SDS011;41010;53.252;5.786;2022-11-20T01:31:00;17.40;;;8.40;;
55114;SDS011;41010;53.252;5.786;2022-11-20T01:33:27;14.48;;;8.38;;
55114;SDS011;41010;53.252;5.786;2022-11-20T01:36:04;14.57;;;8.20;;
55114;SDS011;41010;53.252;5.786;2022-11-20T01:38:31;16.52;;;8.02;;
55114;SDS011;41010;53.252;5.786;2022-11-20T01:40:58;16.90;;;8.23;;
55114;SDS011;41010;53.252;5.786;2022-11-20T01:43:26;16.20;;;8.45;;
55114;SDS011;41010;53.252;5.786;2022-11-20T01:45:58;16.85;;;8.95;;
55114;SDS011;41010;53.252;5.786;2022-11-20T01:48:26;16.00;;;8.85;;
55114;SDS011;41010;53.252;5.786;2022-11-20T01:50:56;16.23;;;9.30;;
55114;SDS011;41010;53.252;5.786;2022-11-20T01:53:28;18.13;;;9.13;;
55114;SDS011;41010;53.252;5.786;2022-11-20T01:58:25;15.88;;;8.52;;
55114;SDS011;41010;53.252;5.786;2022-11-20T02:00:54;15.25;;;8.60;;
55114;SDS011;41010;53.252;5.786;2022-11-20T02:03:21;17.67;;;9.27;;
55114;SDS011;41010;53.252;5.786;2022-11-20T02:05:49;14.93;;;8.18;;
55114;SDS011;41010;53.252;5.786;2022-11-20T02:08:18;14.65;;;8.27;;
55114;SDS011;41010;53.252;5.786;2022-11-20T02:10:47;15.20;;;8.25;;
55114;SDS011;41010;53.252;5.786;2022-11-20T02:13:14;16.50;;;9.20;;
55114;SDS011;41010;53.252;5.786;2022-11-20T02:16:00;17.23;;;8.90;;
55114;SDS011;41010;53.252;5.786;2022-11-20T02:18:28;15.00;;;8.82;;
55114;SDS011;41010;53.252;5.786;2022-11-20T02:20:56;15.15;;;8.02;;
55114;SDS011;41010;53.252;5.786;2022-11-20T02:23:26;15.13;;;8.85;;
55114;SDS011;41010;53.252;5.786;2022-11-20T02:25:56;13.43;;;8.38;;
55114;SDS011;41010;53.252;5.786;2022-11-20T02:28:25;13.32;;;7.32;;
55114;SDS011;41010;53.252;5.786;2022-11-20T02:30:52;12.48;;;7.55;;
55114;SDS011;41010;53.252;5.786;2022-11-20T02:33:19;13.68;;;8.40;;
55114;SDS011;41010;53.252;5.786;2022-11-20T02:35:46;14.88;;;8.13;;
55114;SDS011;41010;53.252;5.786;2022-11-20T02:38:14;12.43;;;7.95;;
55114;SDS011;41010;53.252;5.786;2022-11-20T02:40:41;12.30;;;6.95;;
55114;SDS011;41010;53.252;5.786;2022-11-20T02:43:10;14.60;;;8.02;;
55114;SDS011;41010;53.252;5.786;2022-11-20T02:45:37;13.77;;;7.80;;
55114;SDS011;41010;53.252;5.786;2022-11-20T02:48:05;15.93;;;7.60;;
55114;SDS011;41010;53.252;5.786;2022-11-20T02:50:35;13.85;;;8.00;;
55114;SDS011;41010;53.252;5.786;2022-11-20T02:53:03;13.40;;;7.80;;
55114;SDS011;41010;53.252;5.786;2022-11-20T02:55:30;13.27;;;7.55;;
55114;SDS011;41010;53.252;5.786;2022-11-20T02:57:58;14.50;;;8.20;;
55114;SDS011;41010;53.252;5.786;2022-11-20T03:00:26;17.30;;;8.00;;
55114;SDS011;41010;53.252;5.786;2022-11-20T03:02:53;14.60;;;8.45;;
55114;SDS011;41010;53.252;5.786;2022-11-20T03:05:21;14.57;;;7.75;;
55114;SDS011;41010;53.252;5.786;2022-11-20T03:07:48;17.15;;;8.45;;
55114;SDS011;41010;53.252;5.786;2022-11-20T03:10:15;15.98;;;8.07;;
55114;SDS011;41010;53.252;5.786;2022-11-20T03:12:42;14.70;;;8.02;;
55114;SDS011;41010;53.252;5.786;2022-11-20T03:15:10;12.73;;;7.50;;
55114;SDS011;41010;53.252;5.786;2022-11-20T03:17:39;13.68;;;7.15;;
55114;SDS011;41010;53.252;5.786;2022-11-20T03:20:07;14.10;;;8.02;;
55114;SDS011;41010;53.252;5.786;2022-11-20T03:22:34;13.88;;;8.32;;
55114;SDS011;41010;53.252;5.786;2022-11-20T03:25:01;15.60;;;8.48;;
55114;SDS011;41010;53.252;5.786;2022-11-20T03:27:31;15.73;;;8.55;;
55114;SDS011;41010;53.252;5.786;2022-11-20T03:29:58;16.80;;;9.00;;
55114;SDS011;41010;53.252;5.786;2022-11-20T03:32:26;13.88;;;8.10;;
55114;SDS011;41010;53.252;5.786;2022-11-20T03:34:54;14.93;;;8.38;;
55114;SDS011;41010;53.252;5.786;2022-11-20T03:37:21;13.90;;;7.95;;
55114;SDS011;41010;53.252;5.786;2022-11-20T03:39:49;14.85;;;8.20;;
55114;SDS011;41010;53.252;5.786;2022-11-20T03:42:16;15.15;;;8.60;;
55114;SDS011;41010;53.252;5.786;2022-11-20T03:45:01;13.85;;;7.97;;
55114;SDS011;41010;53.252;5.786;2022-11-20T03:47:28;15.65;;;8.65;;
55114;SDS011;41010;53.252;5.786;2022-11-20T03:49:56;14.18;;;7.63;;
55114;SDS011;41010;53.252;5.786;2022-11-20T03:52:24;14.50;;;8.10;;
55114;SDS011;41010;53.252;5.786;2022-11-20T03:54:51;13.98;;;7.75;;
55114;SDS011;41010;53.252;5.786;2022-11-20T03:57:18;16.13;;;7.93;;
55114;SDS011;41010;53.252;5.786;2022-11-20T03:59:45;15.75;;;7.45;;
55114;SDS011;41010;53.252;5.786;2022-11-20T04:02:13;14.98;;;8.18;;
55114;SDS011;41010;53.252;5.786;2022-11-20T04:04:40;15.73;;;7.63;;
55114;SDS011;41010;53.252;5.786;2022-11-20T04:07:09;13.52;;;6.60;;
55114;SDS011;41010;53.252;5.786;2022-11-20T04:09:36;11.25;;;7.10;;
55114;SDS011;41010;53.252;5.786;2022-11-20T04:12:03;14.88;;;7.93;;
55114;SDS011;41010;53.252;5.786;2022-11-20T04:14:31;12.95;;;7.60;;
55114;SDS011;41010;53.252;5.786;2022-11-20T04:16:58;12.65;;;7.95;;
55114;SDS011;41010;53.252;5.786;2022-11-20T04:19:25;13.88;;;7.45;;
55114;SDS011;41010;53.252;5.786;2022-11-20T04:21:52;14.05;;;7.78;;
55114;SDS011;41010;53.252;5.786;2022-11-20T04:24:21;14.93;;;8.50;;
55114;SDS011;41010;53.252;5.786;2022-11-20T04:26:48;14.45;;;8.05;;
55114;SDS011;41010;53.252;5.786;2022-11-20T04:29:15;13.95;;;7.97;;
55114;SDS011;41010;53.252;5.786;2022-11-20T04:31:42;12.52;;;7.47;;
55114;SDS011;41010;53.252;5.786;2022-11-20T04:34:10;12.18;;;7.28;;
55114;SDS011;41010;53.252;5.786;2022-11-20T04:36:38;15.85;;;8.32;;
55114;SDS011;41010;53.252;5.786;2022-11-20T04:39:06;13.88;;;7.70;;
55114;SDS011;41010;53.252;5.786;2022-11-20T04:41:35;14.10;;;8.60;;
55114;SDS011;41010;53.252;5.786;2022-11-20T04:44:03;14.00;;;8.27;;
55114;SDS011;41010;53.252;5.786;2022-11-20T04:46:32;12.40;;;7.43;;
55114;SDS011;41010;53.252;5.786;2022-11-20T04:49:00;13.20;;;7.80;;
55114;SDS011;41010;53.252;5.786;2022-11-20T04:51:27;17.17;;;8.32;;
55114;SDS011;41010;53.252;5.786;2022-11-20T04:53:55;14.98;;;8.05;;
55114;SDS011;41010;53.252;5.786;2022-11-20T04:56:22;13.50;;;7.28;;
55114;SDS011;41010;53.252;5.786;2022-11-20T04:58:51;17.00;;;8.20;;
55114;SDS011;41010;53.252;5.786;2022-11-20T05:01:19;15.73;;;8.10;;
55114;SDS011;41010;53.252;5.786;2022-11-20T05:03:46;12.98;;;7.10;;
55114;SDS011;41010;53.252;5.786;2022-11-20T05:06:16;13.82;;;7.47;;
55114;SDS011;41010;53.252;5.786;2022-11-20T05:08:44;12.48;;;7.47;;
55114;SDS011;41010;53.252;5.786;2022-11-20T05:11:13;15.00;;;8.15;;
55114;SDS011;41010;53.252;5.786;2022-11-20T05:13:40;12.85;;;7.80;;
55114;SDS011;41010;53.252;5.786;2022-11-20T05:16:09;14.75;;;7.63;;
55114;SDS011;41010;53.252;5.786;2022-11-20T05:18:37;17.80;;;7.82;;
55114;SDS011;41010;53.252;5.786;2022-11-20T05:21:05;15.52;;;7.45;;
55114;SDS011;41010;53.252;5.786;2022-11-20T05:23:33;14.77;;;7.60;;
55114;SDS011;41010;53.252;5.786;2022-11-20T05:26:00;15.27;;;7.80;;
55114;SDS011;41010;53.252;5.786;2022-11-20T05:28:28;14.52;;;7.80;;
55114;SDS011;41010;53.252;5.786;2022-11-20T05:31:03;16.10;;;7.50;;
55114;SDS011;41010;53.252;5.786;2022-11-20T05:33:31;13.40;;;7.90;;
55114;SDS011;41010;53.252;5.786;2022-11-20T05:35:59;15.40;;;7.70;;
55114;SDS011;41010;53.252;5.786;2022-11-20T05:38:26;12.75;;;7.70;;
55114;SDS011;41010;53.252;5.786;2022-11-20T05:40:53;13.43;;;7.78;;
55114;SDS011;41010;53.252;5.786;2022-11-20T05:43:20;14.07;;;7.50;;
55114;SDS011;41010;53.252;5.786;2022-11-20T05:45:51;14.05;;;7.50;;
55114;SDS011;41010;53.252;5.786;2022-11-20T05:48:19;12.30;;;7.50;;
55114;SDS011;41010;53.252;5.786;2022-11-20T05:50:47;14.75;;;8.10;;
55114;SDS011;41010;53.252;5.786;2022-11-20T05:53:15;14.95;;;8.05;;
55114;SDS011;41010;53.252;5.786;2022-11-20T05:55:42;13.88;;;7.40;;
55114;SDS011;41010;53.252;5.786;2022-11-20T05:58:09;14.90;;;7.18;;
55114;SDS011;41010;53.252;5.786;2022-11-20T06:00:36;13.18;;;8.02;;
55114;SDS011;41010;53.252;5.786;2022-11-20T06:03:04;14.73;;;7.97;;
55114;SDS011;41010;53.252;5.786;2022-11-20T06:05:31;13.88;;;8.00;;
55114;SDS011;41010;53.252;5.786;2022-11-20T06:08:01;14.65;;;8.00;;
55114;SDS011;41010;53.252;5.786;2022-11-20T06:10:28;15.57;;;8.00;;
55114;SDS011;41010;53.252;5.786;2022-11-20T06:12:57;14.50;;;8.40;;
55114;SDS011;41010;53.252;5.786;2022-11-20T06:15:24;15.27;;;7.63;;
55114;SDS011;41010;53.252;5.786;2022-11-20T06:17:51;12.98;;;7.78;;
55114;SDS011;41010;53.252;5.786;2022-11-20T06:20:19;15.60;;;8.32;;
55114;SDS011;41010;53.252;5.786;2022-11-20T06:22:46;12.88;;;6.97;;
55114;SDS011;41010;53.252;5.786;2022-11-20T06:25:15;14.00;;;7.88;;
55114;SDS011;41010;53.252;5.786;2022-11-20T06:27:42;14.43;;;8.27;;
55114;SDS011;41010;53.252;5.786;2022-11-20T06:30:10;14.07;;;7.63;;
55114;SDS011;41010;53.252;5.786;2022-11-20T06:32:37;15.95;;;7.88;;
55114;SDS011;41010;53.252;5.786;2022-11-20T06:35:05;14.93;;;8.02;;
55114;SDS011;41010;53.252;5.786;2022-11-20T06:37:32;14.20;;;7.57;;
55114;SDS011;41010;53.252;5.786;2022-11-20T06:39:59;13.20;;;7.47;;
55114;SDS011;41010;53.252;5.786;2022-11-20T06:42:28;14.35;;;7.65;;
55114;SDS011;41010;53.252;5.786;2022-11-20T06:44:55;12.00;;;7.30;;
55114;SDS011;41010;53.252;5.786;2022-11-20T06:47:22;16.73;;;7.65;;
55114;SDS011;41010;53.252;5.786;2022-11-20T06:49:49;13.27;;;8.23;;
55114;SDS011;41010;53.252;5.786;2022-11-20T06:52:17;16.27;;;9.07;;
55114;SDS011;41010;53.252;5.786;2022-11-20T06:54:44;17.50;;;9.35;;
55114;SDS011;41010;53.252;5.786;2022-11-20T06:57:11;11.82;;;7.15;;
55114;SDS011;41010;53.252;5.786;2022-11-20T06:59:40;14.32;;;8.07;;
55114;SDS011;41010;53.252;5.786;2022-11-20T07:02:09;13.60;;;7.85;;
55114;SDS011;41010;53.252;5.786;2022-11-20T07:04:36;13.82;;;8.07;;
55114;SDS011;41010;53.252;5.786;2022-11-20T07:07:04;17.77;;;8.43;;
55114;SDS011;41010;53.252;5.786;2022-11-20T07:09:31;14.35;;;8.68;;
55114;SDS011;41010;53.252;5.786;2022-11-20T07:11:58;14.85;;;8.60;;
55114;SDS011;41010;53.252;5.786;2022-11-20T07:14:26;13.18;;;8.07;;
55114;SDS011;41010;53.252;5.786;2022-11-20T07:16:54;12.98;;;8.35;;
55114;SDS011;41010;53.252;5.786;2022-11-20T07:19:21;16.23;;;8.00;;
55114;SDS011;41010;53.252;5.786;2022-11-20T07:21:49;13.13;;;7.47;;
55114;SDS011;41010;53.252;5.786;2022-11-20T07:24:16;13.75;;;7.78;;
55114;SDS011;41010;53.252;5.786;2022-11-20T07:26:45;14.05;;;8.10;;
55114;SDS011;41010;53.252;5.786;2022-11-20T07:29:14;13.13;;;7.95;;
55114;SDS011;41010;53.252;5.786;2022-11-20T07:31:44;15.60;;;7.70;;
55114;SDS011;41010;53.252;5.786;2022-11-20T07:34:12;13.60;;;7.60;;
55114;SDS011;41010;53.252;5.786;2022-11-20T07:36:39;13.13;;;7.10;;
55114;SDS011;41010;53.252;5.786;2022-11-20T07:39:07;10.75;;;6.50;;
55114;SDS011;41010;53.252;5.786;2022-11-20T07:41:34;10.65;;;6.63;;
55114;SDS011;41010;53.252;5.786;2022-11-20T07:44:01;10.75;;;6.78;;
55114;SDS011;41010;53.252;5.786;2022-11-20T07:46:28;15.55;;;7.55;;
55114;SDS011;41010;53.252;5.786;2022-11-20T07:48:56;15.25;;;7.05;;
55114;SDS011;41010;53.252;5.786;2022-11-20T07:51:24;11.73;;;6.88;;
55114;SDS011;41010;53.252;5.786;2022-11-20T07:53:52;12.43;;;7.32;;
55114;SDS011;41010;53.252;5.786;2022-11-20T07:56:19;13.27;;;7.18;;
55114;SDS011;41010;53.252;5.786;2022-11-20T07:58:47;11.77;;;7.40;;
55114;SDS011;41010;53.252;5.786;2022-11-20T08:01:14;13.15;;;7.07;;
55114;SDS011;41010;53.252;5.786;2022-11-20T08:03:41;11.10;;;7.00;;
55114;SDS011;41010;53.252;5.786;2022-11-20T08:06:08;16.48;;;8.50;;
55114;SDS011;41010;53.252;5.786;2022-11-20T08:08:37;15.30;;;7.90;;
55114;SDS011;41010;53.252;5.786;2022-11-20T08:11:05;14.43;;;7.80;;
55114;SDS011;41010;53.252;5.786;2022-11-20T08:13:47;12.95;;;7.03;;
55114;SDS011;41010;53.252;5.786;2022-11-20T08:16:31;14.02;;;7.60;;
55114;SDS011;41010;53.252;5.786;2022-11-20T08:18:59;12.75;;;7.45;;
55114;SDS011;41010;53.252;5.786;2022-11-20T08:21:26;14.50;;;7.72;;
55114;SDS011;41010;53.252;5.786;2022-11-20T08:23:54;13.15;;;7.13;;
55114;SDS011;41010;53.252;5.786;2022-11-20T08:26:22;12.27;;;6.68;;
55114;SDS011;41010;53.252;5.786;2022-11-20T08:28:52;11.85;;;6.78;;
55114;SDS011;41010;53.252;5.786;2022-11-20T08:31:20;13.07;;;6.72;;
55114;SDS011;41010;53.252;5.786;2022-11-20T08:33:47;11.65;;;7.40;;
55114;SDS011;41010;53.252;5.786;2022-11-20T08:36:15;10.45;;;6.60;;
55114;SDS011;41010;53.252;5.786;2022-11-20T08:38:46;12.68;;;6.68;;
55114;SDS011;41010;53.252;5.786;2022-11-20T08:41:15;14.70;;;7.32;;
55114;SDS011;41010;53.252;5.786;2022-11-20T08:43:53;14.60;;;7.32;;
55114;SDS011;41010;53.252;5.786;2022-11-20T08:46:20;13.02;;;7.40;;
55114;SDS011;41010;53.252;5.786;2022-11-20T08:48:48;10.75;;;7.00;;
55114;SDS011;41010;53.252;5.786;2022-11-20T08:51:15;11.88;;;6.82;;
55114;SDS011;41010;53.252;5.786;2022-11-20T08:53:42;11.15;;;6.93;;
55114;SDS011;41010;53.252;5.786;2022-11-20T08:56:10;12.32;;;6.95;;
55114;SDS011;41010;53.252;5.786;2022-11-20T08:58:38;10.13;;;6.47;;
55114;SDS011;41010;53.252;5.786;2022-11-20T09:01:06;14.40;;;8.00;;
55114;SDS011;41010;53.252;5.786;2022-11-20T09:03:33;12.77;;;6.97;;
55114;SDS011;41010;53.252;5.786;2022-11-20T09:06:01;14.50;;;8.23;;
55114;SDS011;41010;53.252;5.786;2022-11-20T09:08:29;12.95;;;7.28;;
55114;SDS011;41010;53.252;5.786;2022-11-20T09:10:57;12.27;;;7.55;;
55114;SDS011;41010;53.252;5.786;2022-11-20T09:13:25;13.27;;;8.10;;
55114;SDS011;41010;53.252;5.786;2022-11-20T09:15:54;23.73;;;11.73;;
55114;SDS011;41010;53.252;5.786;2022-11-20T09:18:21;19.55;;;10.93;;
55114;SDS011;41010;53.252;5.786;2022-11-20T09:20:49;18.77;;;10.85;;
55114;SDS011;41010;53.252;5.786;2022-11-20T09:23:16;16.92;;;9.77;;
55114;SDS011;41010;53.252;5.786;2022-11-20T09:25:44;16.45;;;9.48;;
55114;SDS011;41010;53.252;5.786;2022-11-20T09:28:11;17.00;;;10.27;;
55114;SDS011;41010;53.252;5.786;2022-11-20T09:30:38;19.15;;;10.55;;
55114;SDS011;41010;53.252;5.786;2022-11-20T09:33:07;17.90;;;10.32;;
55114;SDS011;41010;53.252;5.786;2022-11-20T09:35:34;16.15;;;10.02;;
55114;SDS011;41010;53.252;5.786;2022-11-20T09:38:05;18.80;;;9.68;;
55114;SDS011;41010;53.252;5.786;2022-11-20T09:40:32;16.20;;;9.50;;
55114;SDS011;41010;53.252;5.786;2022-11-20T09:43:01;17.33;;;9.82;;
55114;SDS011;41010;53.252;5.786;2022-11-20T09:45:35;15.00;;;9.48;;
55114;SDS011;41010;53.252;5.786;2022-11-20T09:48:10;14.13;;;8.68;;
55114;SDS011;41010;53.252;5.786;2022-11-20T09:50:42;14.68;;;9.13;;
55114;SDS011;41010;53.252;5.786;2022-11-20T09:53:13;15.98;;;9.63;;
55114;SDS011;41010;53.252;5.786;2022-11-20T09:55:43;14.52;;;9.57;;
55114;SDS011;41010;53.252;5.786;2022-11-20T09:58:13;17.70;;;10.00;;
55114;SDS011;41010;53.252;5.786;2022-11-20T10:00:42;16.02;;;9.68;;
55114;SDS011;41010;53.252;5.786;2022-11-20T10:03:13;16.70;;;10.10;;
55114;SDS011;41010;53.252;5.786;2022-11-20T10:05:42;14.18;;;9.38;;
55114;SDS011;41010;53.252;5.786;2022-11-20T10:08:13;16.05;;;9.23;;
55114;SDS011;41010;53.252;5.786;2022-11-20T10:10:42;15.70;;;9.20;;
55114;SDS011;41010;53.252;5.786;2022-11-20T10:13:17;14.93;;;8.73;;
55114;SDS011;41010;53.252;5.786;2022-11-20T10:15:52;14.90;;;9.70;;
55114;SDS011;41010;53.252;5.786;2022-11-20T10:18:26;15.25;;;9.30;;
55114;SDS011;41010;53.252;5.786;2022-11-20T10:20:59;15.57;;;9.40;;
55114;SDS011;41010;53.252;5.786;2022-11-20T10:23:35;13.48;;;8.60;;
55114;SDS011;41010;53.252;5.786;2022-11-20T10:26:12;16.55;;;10.25;;
55114;SDS011;41010;53.252;5.786;2022-11-20T10:28:46;15.13;;;9.10;;
55114;SDS011;41010;53.252;5.786;2022-11-20T10:31:18;17.73;;;10.55;;
55114;SDS011;41010;53.252;5.786;2022-11-20T10:33:53;15.30;;;8.98;;
55114;SDS011;41010;53.252;5.786;2022-11-20T10:36:22;15.93;;;10.07;;
55114;SDS011;41010;53.252;5.786;2022-11-20T10:38:53;14.93;;;9.30;;
55114;SDS011;41010;53.252;5.786;2022-11-20T10:41:23;13.50;;;8.65;;
55114;SDS011;41010;53.252;5.786;2022-11-20T10:43:52;14.25;;;9.18;;
55114;SDS011;41010;53.252;5.786;2022-11-20T10:46:21;14.95;;;8.98;;
55114;SDS011;41010;53.252;5.786;2022-11-20T10:48:49;14.32;;;8.48;;
55114;SDS011;41010;53.252;5.786;2022-11-20T10:51:21;15.85;;;10.07;;
55114;SDS011;41010;53.252;5.786;2022-11-20T10:53:57;16.15;;;9.90;;
55114;SDS011;41010;53.252;5.786;2022-11-20T10:56:28;15.57;;;9.27;;
55114;SDS011;41010;53.252;5.786;2022-11-20T10:59:02;13.43;;;8.63;;
55114;SDS011;41010;53.252;5.786;2022-11-20T11:01:29;14.27;;;8.23;;
55114;SDS011;41010;53.252;5.786;2022-11-20T11:03:57;13.43;;;8.93;;
55114;SDS011;41010;53.252;5.786;2022-11-20T11:06:28;14.43;;;8.48;;
55114;SDS011;41010;53.252;5.786;2022-11-20T11:11:27;13.52;;;8.35;;
55114;SDS011;41010;53.252;5.786;2022-11-20T11:14:04;14.70;;;9.13;;
55114;SDS011;41010;53.252;5.786;2022-11-20T11:16:31;14.32;;;8.55;;
55114;SDS011;41010;53.252;5.786;2022-11-20T11:19:05;14.13;;;8.15;;
55114;SDS011;41010;53.252;5.786;2022-11-20T11:21:34;16.05;;;7.57;;
55114;SDS011;41010;53.252;5.786;2022-11-20T11:24:14;13.25;;;7.75;;
55114;SDS011;41010;53.252;5.786;2022-11-20T11:26:50;10.93;;;7.10;;
55114;SDS011;41010;53.252;5.786;2022-11-20T11:29:17;9.88;;;6.25;;
55114;SDS011;41010;53.252;5.786;2022-11-20T11:31:45;10.73;;;6.15;;
55114;SDS011;41010;53.252;5.786;2022-11-20T11:34:13;9.43;;;6.13;;
55114;SDS011;41010;53.252;5.786;2022-11-20T11:36:42;9.27;;;5.50;;
55114;SDS011;41010;53.252;5.786;2022-11-20T11:39:18;9.05;;;5.60;;
55114;SDS011;41010;53.252;5.786;2022-11-20T11:41:46;6.95;;;4.80;;
55114;SDS011;41010;53.252;5.786;2022-11-20T11:44:15;6.72;;;3.65;;
55114;SDS011;41010;53.252;5.786;2022-11-20T11:47:00;7.25;;;4.28;;
55114;SDS011;41010;53.252;5.786;2022-11-20T11:49:28;7.55;;;4.13;;
55114;SDS011;41010;53.252;5.786;2022-11-20T11:52:00;7.53;;;4.07;;
55114;SDS011;41010;53.252;5.786;2022-11-20T11:54:30;7.07;;;4.40;;
55114;SDS011;41010;53.252;5.786;2022-11-20T11:57:00;6.82;;;4.00;;
55114;SDS011;41010;53.252;5.786;2022-11-20T11:59:29;6.10;;;3.80;;
55114;SDS011;41010;53.252;5.786;2022-11-20T12:01:59;9.18;;;3.95;;
55114;SDS011;41010;53.252;5.786;2022-11-20T12:04:35;5.53;;;3.42;;
55114;SDS011;41010;53.252;5.786;2022-11-20T12:07:08;5.25;;;3.40;;
55114;SDS011;41010;53.252;5.786;2022-11-20T12:09:38;5.10;;;3.25;;
55114;SDS011;41010;53.252;5.786;2022-11-20T12:12:10;8.80;;;3.90;;
55114;SDS011;41010;53.252;5.786;2022-11-20T12:14:38;6.18;;;3.45;;
55114;SDS011;41010;53.252;5.786;2022-11-20T12:17:07;5.90;;;3.78;;
55114;SDS011;41010;53.252;5.786;2022-11-20T12:19:37;5.25;;;3.20;;
55114;SDS011;41010;53.252;5.786;2022-11-20T12:22:07;6.47;;;2.90;;
55114;SDS011;41010;53.252;5.786;2022-11-20T12:24:42;6.57;;;3.35;;
55114;SDS011;41010;53.252;5.786;2022-11-20T12:27:21;5.10;;;3.00;;
55114;SDS011;41010;53.252;5.786;2022-11-20T12:29:53;5.55;;;3.00;;
55114;SDS011;41010;53.252;5.786;2022-11-20T12:32:33;8.15;;;4.18;;
55114;SDS011;41010;53.252;5.786;2022-11-20T12:35:05;6.28;;;3.47;;
55114;SDS011;41010;53.252;5.786;2022-11-20T12:37:39;6.53;;;3.47;;
55114;SDS011;41010;53.252;5.786;2022-11-20T12:40:20;8.82;;;3.65;;
55114;SDS011;41010;53.252;5.786;2022-11-20T12:42:54;7.68;;;3.95;;
55114;SDS011;41010;53.252;5.786;2022-11-20T12:45:46;6.72;;;3.88;;
55114;SDS011;41010;53.252;5.786;2022-11-20T12:48:20;6.07;;;3.45;;
55114;SDS011;41010;53.252;5.786;2022-11-20T12:50:56;6.90;;;3.95;;
55114;SDS011;41010;53.252;5.786;2022-11-20T12:53:29;6.63;;;3.40;;
55114;SDS011;41010;53.252;5.786;2022-11-20T12:56:01;6.97;;;3.72;;
55114;SDS011;41010;53.252;5.786;2022-11-20T12:58:32;7.10;;;3.85;;
55114;SDS011;41010;53.252;5.786;2022-11-20T13:01:03;6.65;;;3.60;;
55114;SDS011;41010;53.252;5.786;2022-11-20T13:03:55;6.72;;;3.88;;
55114;SDS011;41010;53.252;5.786;2022-11-20T13:06:25;5.28;;;3.25;;
55114;SDS011;41010;53.252;5.786;2022-11-20T13:08:54;5.40;;;3.67;;
55114;SDS011;41010;53.252;5.786;2022-11-20T13:11:24;5.60;;;3.90;;
55114;SDS011;41010;53.252;5.786;2022-11-20T13:14:00;7.43;;;3.90;;
55114;SDS011;41010;53.252;5.786;2022-11-20T13:16:30;7.32;;;4.07;;
55114;SDS011;41010;53.252;5.786;2022-11-20T13:19:01;6.88;;;3.88;;
55114;SDS011;41010;53.252;5.786;2022-11-20T13:21:35;6.47;;;3.80;;
55114;SDS011;41010;53.252;5.786;2022-11-20T13:24:19;6.90;;;4.00;;
55114;SDS011;41010;53.252;5.786;2022-11-20T13:26:48;11.52;;;5.50;;
55114;SDS011;41010;53.252;5.786;2022-11-20T13:29:16;17.45;;;8.07;;
55114;SDS011;41010;53.252;5.786;2022-11-20T13:31:44;12.18;;;6.20;;
55114;SDS011;41010;53.252;5.786;2022-11-20T13:34:12;10.02;;;4.80;;
55114;SDS011;41010;53.252;5.786;2022-11-20T13:36:48;7.85;;;4.78;;
55114;SDS011;41010;53.252;5.786;2022-11-20T13:39:24;9.77;;;5.05;;
55114;SDS011;41010;53.252;5.786;2022-11-20T13:41:54;6.60;;;4.35;;
55114;SDS011;41010;53.252;5.786;2022-11-20T13:44:23;9.95;;;5.35;;
55114;SDS011;41010;53.252;5.786;2022-11-20T13:46:51;8.20;;;5.00;;
55114;SDS011;41010;53.252;5.786;2022-11-20T13:49:27;9.27;;;5.65;;
55114;SDS011;41010;53.252;5.786;2022-11-20T13:51:58;7.70;;;4.63;;
55114;SDS011;41010;53.252;5.786;2022-11-20T13:54:50;8.35;;;4.72;;
55114;SDS011;41010;53.252;5.786;2022-11-20T14:00:04;7.78;;;4.60;;
55114;SDS011;41010;53.252;5.786;2022-11-20T14:05:02;8.85;;;5.35;;
55114;SDS011;41010;53.252;5.786;2022-11-20T14:07:31;7.22;;;4.50;;
55114;SDS011;41010;53.252;5.786;2022-11-20T14:10:00;7.50;;;4.60;;
55114;SDS011;41010;53.252;5.786;2022-11-20T14:12:29;9.48;;;5.28;;
55114;SDS011;41010;53.252;5.786;2022-11-20T14:14:56;7.32;;;4.97;;
55114;SDS011;41010;53.252;5.786;2022-11-20T14:17:28;14.85;;;5.38;;
55114;SDS011;41010;53.252;5.786;2022-11-20T14:19:57;7.88;;;4.72;;
55114;SDS011;41010;53.252;5.786;2022-11-20T14:22:26;7.97;;;5.05;;
55114;SDS011;41010;53.252;5.786;2022-11-20T14:25:03;8.80;;;6.38;;
55114;SDS011;41010;53.252;5.786;2022-11-20T14:27:32;10.27;;;5.43;;
55114;SDS011;41010;53.252;5.786;2022-11-20T14:30:00;8.55;;;5.10;;
55114;SDS011;41010;53.252;5.786;2022-11-20T14:32:28;8.77;;;5.00;;
55114;SDS011;41010;53.252;5.786;2022-11-20T14:34:57;9.20;;;5.32;;
55114;SDS011;41010;53.252;5.786;2022-11-20T14:37:26;10.27;;;4.82;;
55114;SDS011;41010;53.252;5.786;2022-11-20T14:39:55;11.40;;;5.05;;
55114;SDS011;41010;53.252;5.786;2022-11-20T14:42:25;8.55;;;5.20;;
55114;SDS011;41010;53.252;5.786;2022-11-20T14:44:54;8.65;;;4.80;;
55114;SDS011;41010;53.252;5.786;2022-11-20T14:47:23;10.50;;;5.07;;
55114;SDS011;41010;53.252;5.786;2022-11-20T14:49:51;9.45;;;5.72;;
55114;SDS011;41010;53.252;5.786;2022-11-20T14:52:20;9.30;;;5.40;;
55114;SDS011;41010;53.252;5.786;2022-11-20T14:54:47;7.30;;;4.55;;
55114;SDS011;41010;53.252;5.786;2022-11-20T14:57:22;7.70;;;5.28;;
55114;SDS011;41010;53.252;5.786;2022-11-20T14:59:51;8.38;;;4.90;;